Roscoe, Nebraska
Current Conditions -  °F | °C
As of 8:15 PM on Thursday 27 Nov 2014 (Local Time) from KOGA Reporting Station
Clear Clear  
Wind Chill: 27°   Ceiling: Unl
Heat Index: 34°   Visibility: 10mi
Dew Point: 31°   Wind: 8mph
Humidity: 90%   Direction: 250°WSW
Pressure: 30"   Gusts: NA
Location:  41.0603°N, 101.629°W
Report Text: KOGA 280315Z AUTO 25007KT 10SM CLR 01/00 A3000 RMK AO2 T00111003
Loading
Personal Weather Stations






























Interactive Weather Map New forecast layout! Learn more

10-Day Weather Forecast

Advertisements
Track Severe Weather on mobile